sensor_id;sensor_type;location;lat;lon;timestamp;P1;durP1;ratioP1;P2;durP2;ratioP2
9142;SDS011;54072;47.410;8.446;2023-08-01T00:01:57;6.53;;;5.50;;
9142;SDS011;54072;47.410;8.446;2023-08-01T00:04:24;6.70;;;5.40;;
9142;SDS011;54072;47.410;8.446;2023-08-01T00:06:52;6.07;;;5.10;;
9142;SDS011;54072;47.410;8.446;2023-08-01T00:09:19;7.07;;;5.53;;
9142;SDS011;54072;47.410;8.446;2023-08-01T00:11:47;8.07;;;5.57;;
9142;SDS011;54072;47.410;8.446;2023-08-01T00:14:14;6.93;;;5.53;;
9142;SDS011;54072;47.410;8.446;2023-08-01T00:16:42;8.60;;;5.50;;
9142;SDS011;54072;47.410;8.446;2023-08-01T00:19:11;7.77;;;5.70;;
9142;SDS011;54072;47.410;8.446;2023-08-01T00:21:38;7.90;;;5.50;;
9142;SDS011;54072;47.410;8.446;2023-08-01T00:24:06;7.97;;;5.73;;
9142;SDS011;54072;47.410;8.446;2023-08-01T00:26:34;6.10;;;5.33;;
9142;SDS011;54072;47.410;8.446;2023-08-01T00:29:02;6.73;;;5.70;;
9142;SDS011;54072;47.410;8.446;2023-08-01T00:31:29;7.80;;;5.60;;
9142;SDS011;54072;47.410;8.446;2023-08-01T00:33:57;6.40;;;5.43;;
9142;SDS011;54072;47.410;8.446;2023-08-01T00:36:26;6.23;;;5.63;;
9142;SDS011;54072;47.410;8.446;2023-08-01T00:38:53;6.83;;;5.40;;
9142;SDS011;54072;47.410;8.446;2023-08-01T00:41:21;6.07;;;5.00;;
9142;SDS011;54072;47.410;8.446;2023-08-01T00:43:48;7.00;;;5.07;;
9142;SDS011;54072;47.410;8.446;2023-08-01T00:46:16;7.10;;;5.83;;
9142;SDS011;54072;47.410;8.446;2023-08-01T00:48:43;5.70;;;4.63;;
9142;SDS011;54072;47.410;8.446;2023-08-01T00:51:11;5.90;;;5.30;;
9142;SDS011;54072;47.410;8.446;2023-08-01T00:53:40;8.33;;;5.00;;
9142;SDS011;54072;47.410;8.446;2023-08-01T00:56:07;6.23;;;4.87;;
9142;SDS011;54072;47.410;8.446;2023-08-01T00:58:35;7.67;;;5.33;;
9142;SDS011;54072;47.410;8.446;2023-08-01T01:01:03;5.17;;;4.53;;
9142;SDS011;54072;47.410;8.446;2023-08-01T01:03:30;5.63;;;4.47;;
9142;SDS011;54072;47.410;8.446;2023-08-01T01:06:00;5.70;;;5.07;;
9142;SDS011;54072;47.410;8.446;2023-08-01T01:08:29;6.60;;;4.20;;
9142;SDS011;54072;47.410;8.446;2023-08-01T01:10:58;4.50;;;4.00;;
9142;SDS011;54072;47.410;8.446;2023-08-01T01:13:25;5.50;;;4.37;;
9142;SDS011;54072;47.410;8.446;2023-08-01T01:15:53;4.93;;;3.97;;
9142;SDS011;54072;47.410;8.446;2023-08-01T01:18:20;5.93;;;4.00;;
9142;SDS011;54072;47.410;8.446;2023-08-01T01:20:49;5.33;;;4.20;;
9142;SDS011;54072;47.410;8.446;2023-08-01T01:23:17;4.57;;;4.13;;
9142;SDS011;54072;47.410;8.446;2023-08-01T01:25:45;5.43;;;4.37;;
9142;SDS011;54072;47.410;8.446;2023-08-01T01:28:13;9.27;;;4.30;;
9142;SDS011;54072;47.410;8.446;2023-08-01T01:30:42;6.30;;;3.97;;
9142;SDS011;54072;47.410;8.446;2023-08-01T01:33:10;4.83;;;3.67;;
9142;SDS011;54072;47.410;8.446;2023-08-01T01:35:38;5.27;;;3.80;;
9142;SDS011;54072;47.410;8.446;2023-08-01T01:38:07;4.87;;;3.97;;
9142;SDS011;54072;47.410;8.446;2023-08-01T01:40:35;5.37;;;4.00;;
9142;SDS011;54072;47.410;8.446;2023-08-01T01:43:02;4.17;;;3.77;;
9142;SDS011;54072;47.410;8.446;2023-08-01T01:45:30;4.03;;;3.63;;
9142;SDS011;54072;47.410;8.446;2023-08-01T01:47:57;5.03;;;3.70;;
9142;SDS011;54072;47.410;8.446;2023-08-01T01:50:25;3.97;;;3.47;;
9142;SDS011;54072;47.410;8.446;2023-08-01T01:52:53;3.73;;;3.43;;
9142;SDS011;54072;47.410;8.446;2023-08-01T01:55:21;4.77;;;3.50;;
9142;SDS011;54072;47.410;8.446;2023-08-01T01:57:49;4.67;;;3.40;;
9142;SDS011;54072;47.410;8.446;2023-08-01T02:00:16;5.03;;;3.60;;
9142;SDS011;54072;47.410;8.446;2023-08-01T02:02:44;4.77;;;3.53;;
9142;SDS011;54072;47.410;8.446;2023-08-01T02:05:12;4.33;;;3.60;;
9142;SDS011;54072;47.410;8.446;2023-08-01T02:07:39;4.17;;;3.50;;
9142;SDS011;54072;47.410;8.446;2023-08-01T02:10:07;3.40;;;3.10;;
9142;SDS011;54072;47.410;8.446;2023-08-01T02:12:36;4.37;;;3.47;;
9142;SDS011;54072;47.410;8.446;2023-08-01T02:15:04;4.10;;;3.23;;
9142;SDS011;54072;47.410;8.446;2023-08-01T02:17:32;3.57;;;3.23;;
9142;SDS011;54072;47.410;8.446;2023-08-01T02:19:59;5.23;;;3.83;;
9142;SDS011;54072;47.410;8.446;2023-08-01T02:22:27;3.57;;;3.27;;
9142;SDS011;54072;47.410;8.446;2023-08-01T02:24:54;4.80;;;3.47;;
9142;SDS011;54072;47.410;8.446;2023-08-01T02:27:22;3.60;;;3.27;;
9142;SDS011;54072;47.410;8.446;2023-08-01T02:29:51;4.70;;;3.50;;
9142;SDS011;54072;47.410;8.446;2023-08-01T02:32:19;5.37;;;3.60;;
9142;SDS011;54072;47.410;8.446;2023-08-01T02:34:46;3.50;;;3.20;;
9142;SDS011;54072;47.410;8.446;2023-08-01T02:37:14;4.33;;;3.40;;
9142;SDS011;54072;47.410;8.446;2023-08-01T02:39:41;4.93;;;3.90;;
9142;SDS011;54072;47.410;8.446;2023-08-01T02:42:09;4.67;;;3.67;;
9142;SDS011;54072;47.410;8.446;2023-08-01T02:44:36;4.60;;;3.90;;
9142;SDS011;54072;47.410;8.446;2023-08-01T02:47:05;5.33;;;3.73;;
9142;SDS011;54072;47.410;8.446;2023-08-01T02:49:33;4.80;;;3.87;;
9142;SDS011;54072;47.410;8.446;2023-08-01T02:52:00;5.33;;;4.00;;
9142;SDS011;54072;47.410;8.446;2023-08-01T02:54:28;4.23;;;3.73;;
9142;SDS011;54072;47.410;8.446;2023-08-01T02:56:55;5.93;;;4.10;;
9142;SDS011;54072;47.410;8.446;2023-08-01T02:59:23;5.03;;;3.77;;
9142;SDS011;54072;47.410;8.446;2023-08-01T03:01:51;5.70;;;4.03;;
9142;SDS011;54072;47.410;8.446;2023-08-01T03:04:20;5.17;;;4.07;;
9142;SDS011;54072;47.410;8.446;2023-08-01T03:06:51;4.80;;;4.30;;
9142;SDS011;54072;47.410;8.446;2023-08-01T03:09:19;5.90;;;4.33;;
9142;SDS011;54072;47.410;8.446;2023-08-01T03:11:46;6.00;;;4.30;;
9142;SDS011;54072;47.410;8.446;2023-08-01T03:14:14;6.53;;;4.30;;
9142;SDS011;54072;47.410;8.446;2023-08-01T03:16:42;6.50;;;4.60;;
9142;SDS011;54072;47.410;8.446;2023-08-01T03:19:10;6.00;;;4.40;;
9142;SDS011;54072;47.410;8.446;2023-08-01T03:21:39;5.47;;;4.40;;
9142;SDS011;54072;47.410;8.446;2023-08-01T03:24:06;5.47;;;4.40;;
9142;SDS011;54072;47.410;8.446;2023-08-01T03:26:34;5.33;;;4.30;;
9142;SDS011;54072;47.410;8.446;2023-08-01T03:29:02;6.23;;;4.43;;
9142;SDS011;54072;47.410;8.446;2023-08-01T03:31:31;5.27;;;4.00;;
9142;SDS011;54072;47.410;8.446;2023-08-01T03:33:59;4.47;;;4.07;;
9142;SDS011;54072;47.410;8.446;2023-08-01T03:36:26;4.60;;;4.20;;
9142;SDS011;54072;47.410;8.446;2023-08-01T03:38:55;4.43;;;4.03;;
9142;SDS011;54072;47.410;8.446;2023-08-01T03:41:23;5.93;;;4.00;;
9142;SDS011;54072;47.410;8.446;2023-08-01T03:43:50;7.47;;;4.20;;
9142;SDS011;54072;47.410;8.446;2023-08-01T03:46:18;5.90;;;4.30;;
9142;SDS011;54072;47.410;8.446;2023-08-01T03:48:46;4.53;;;4.10;;
9142;SDS011;54072;47.410;8.446;2023-08-01T03:51:13;8.97;;;4.60;;
9142;SDS011;54072;47.410;8.446;2023-08-01T03:53:41;5.83;;;4.60;;
9142;SDS011;54072;47.410;8.446;2023-08-01T03:56:10;5.07;;;4.57;;
9142;SDS011;54072;47.410;8.446;2023-08-01T03:58:38;6.73;;;4.70;;
9142;SDS011;54072;47.410;8.446;2023-08-01T04:01:05;5.80;;;4.40;;
9142;SDS011;54072;47.410;8.446;2023-08-01T04:03:33;6.03;;;4.20;;
9142;SDS011;54072;47.410;8.446;2023-08-01T04:06:00;7.50;;;4.70;;
9142;SDS011;54072;47.410;8.446;2023-08-01T04:08:28;5.20;;;4.67;;
9142;SDS011;54072;47.410;8.446;2023-08-01T04:10:57;5.50;;;4.27;;
9142;SDS011;54072;47.410;8.446;2023-08-01T04:13:26;6.43;;;4.50;;
9142;SDS011;54072;47.410;8.446;2023-08-01T04:15:53;6.53;;;4.67;;
9142;SDS011;54072;47.410;8.446;2023-08-01T04:18:21;5.47;;;4.30;;
9142;SDS011;54072;47.410;8.446;2023-08-01T04:20:48;6.87;;;4.30;;
9142;SDS011;54072;47.410;8.446;2023-08-01T04:23:16;5.20;;;4.40;;
9142;SDS011;54072;47.410;8.446;2023-08-01T04:25:44;6.43;;;4.53;;
9142;SDS011;54072;47.410;8.446;2023-08-01T04:28:11;5.27;;;4.50;;
9142;SDS011;54072;47.410;8.446;2023-08-01T04:30:40;5.60;;;4.40;;
9142;SDS011;54072;47.410;8.446;2023-08-01T04:33:08;5.27;;;3.93;;
9142;SDS011;54072;47.410;8.446;2023-08-01T04:35:35;6.47;;;4.40;;
9142;SDS011;54072;47.410;8.446;2023-08-01T04:38:03;5.53;;;4.23;;
9142;SDS011;54072;47.410;8.446;2023-08-01T04:40:30;5.50;;;4.23;;
9142;SDS011;54072;47.410;8.446;2023-08-01T04:42:58;6.00;;;3.93;;
9142;SDS011;54072;47.410;8.446;2023-08-01T04:45:25;7.20;;;4.17;;
9142;SDS011;54072;47.410;8.446;2023-08-01T04:47:54;6.40;;;4.27;;
9142;SDS011;54072;47.410;8.446;2023-08-01T04:50:22;6.97;;;4.53;;
9142;SDS011;54072;47.410;8.446;2023-08-01T04:52:50;6.53;;;4.13;;
9142;SDS011;54072;47.410;8.446;2023-08-01T04:55:17;5.93;;;4.43;;
9142;SDS011;54072;47.410;8.446;2023-08-01T04:57:45;5.80;;;4.37;;
9142;SDS011;54072;47.410;8.446;2023-08-01T05:00:13;6.13;;;4.63;;
9142;SDS011;54072;47.410;8.446;2023-08-01T05:03:06;5.37;;;4.10;;
9142;SDS011;54072;47.410;8.446;2023-08-01T05:05:34;6.93;;;4.13;;
9142;SDS011;54072;47.410;8.446;2023-08-01T05:08:02;5.07;;;3.90;;
9142;SDS011;54072;47.410;8.446;2023-08-01T05:10:29;7.07;;;4.43;;
9142;SDS011;54072;47.410;8.446;2023-08-01T05:12:57;6.10;;;4.17;;
9142;SDS011;54072;47.410;8.446;2023-08-01T05:15:24;6.20;;;4.10;;
9142;SDS011;54072;47.410;8.446;2023-08-01T05:17:53;5.17;;;4.50;;
9142;SDS011;54072;47.410;8.446;2023-08-01T05:20:23;5.50;;;4.17;;
9142;SDS011;54072;47.410;8.446;2023-08-01T05:22:52;4.60;;;3.83;;
9142;SDS011;54072;47.410;8.446;2023-08-01T05:25:21;4.90;;;3.93;;
9142;SDS011;54072;47.410;8.446;2023-08-01T05:27:49;3.70;;;3.40;;
9142;SDS011;54072;47.410;8.446;2023-08-01T05:30:16;5.83;;;4.50;;
9142;SDS011;54072;47.410;8.446;2023-08-01T05:32:44;4.73;;;3.47;;
9142;SDS011;54072;47.410;8.446;2023-08-01T05:35:12;5.80;;;3.60;;
9142;SDS011;54072;47.410;8.446;2023-08-01T05:37:41;5.20;;;3.50;;
9142;SDS011;54072;47.410;8.446;2023-08-01T05:40:09;6.13;;;3.60;;
9142;SDS011;54072;47.410;8.446;2023-08-01T05:42:36;4.83;;;3.43;;
9142;SDS011;54072;47.410;8.446;2023-08-01T05:45:04;6.83;;;3.23;;
9142;SDS011;54072;47.410;8.446;2023-08-01T05:47:32;5.00;;;3.47;;
9142;SDS011;54072;47.410;8.446;2023-08-01T05:49:59;4.67;;;3.80;;
9142;SDS011;54072;47.410;8.446;2023-08-01T05:52:27;6.63;;;3.40;;
9142;SDS011;54072;47.410;8.446;2023-08-01T05:54:56;5.07;;;3.60;;
9142;SDS011;54072;47.410;8.446;2023-08-01T05:57:23;6.27;;;3.87;;
9142;SDS011;54072;47.410;8.446;2023-08-01T05:59:51;5.17;;;3.43;;
9142;SDS011;54072;47.410;8.446;2023-08-01T06:02:18;4.23;;;3.67;;
9142;SDS011;54072;47.410;8.446;2023-08-01T06:04:46;4.33;;;3.17;;
9142;SDS011;54072;47.410;8.446;2023-08-01T06:07:13;8.50;;;4.00;;
9142;SDS011;54072;47.410;8.446;2023-08-01T06:09:41;5.80;;;4.47;;
9142;SDS011;54072;47.410;8.446;2023-08-01T06:12:10;4.67;;;3.77;;
9142;SDS011;54072;47.410;8.446;2023-08-01T06:14:37;6.60;;;4.20;;
9142;SDS011;54072;47.410;8.446;2023-08-01T06:17:05;4.50;;;3.43;;
9142;SDS011;54072;47.410;8.446;2023-08-01T06:19:33;4.73;;;3.60;;
9142;SDS011;54072;47.410;8.446;2023-08-01T06:22:00;4.50;;;3.77;;
9142;SDS011;54072;47.410;8.446;2023-08-01T06:24:28;4.67;;;3.43;;
9142;SDS011;54072;47.410;8.446;2023-08-01T06:26:55;4.67;;;4.03;;
9142;SDS011;54072;47.410;8.446;2023-08-01T06:29:24;7.03;;;3.90;;
9142;SDS011;54072;47.410;8.446;2023-08-01T06:31:51;5.60;;;3.63;;
9142;SDS011;54072;47.410;8.446;2023-08-01T06:34:19;7.93;;;4.83;;
9142;SDS011;54072;47.410;8.446;2023-08-01T06:36:47;6.43;;;3.50;;
9142;SDS011;54072;47.410;8.446;2023-08-01T06:39:14;4.73;;;3.70;;
9142;SDS011;54072;47.410;8.446;2023-08-01T06:41:42;4.73;;;4.20;;
9142;SDS011;54072;47.410;8.446;2023-08-01T06:44:09;8.37;;;4.47;;
9142;SDS011;54072;47.410;8.446;2023-08-01T06:46:38;6.83;;;4.23;;
9142;SDS011;54072;47.410;8.446;2023-08-01T06:49:06;8.00;;;4.33;;
9142;SDS011;54072;47.410;8.446;2023-08-01T06:51:33;5.20;;;4.50;;
9142;SDS011;54072;47.410;8.446;2023-08-01T06:54:01;10.80;;;4.13;;
9142;SDS011;54072;47.410;8.446;2023-08-01T06:56:28;5.37;;;4.03;;
9142;SDS011;54072;47.410;8.446;2023-08-01T06:58:56;8.20;;;4.27;;
9142;SDS011;54072;47.410;8.446;2023-08-01T07:01:26;4.83;;;3.67;;
9142;SDS011;54072;47.410;8.446;2023-08-01T07:03:55;5.13;;;3.80;;
9142;SDS011;54072;47.410;8.446;2023-08-01T07:06:23;6.77;;;4.30;;
9142;SDS011;54072;47.410;8.446;2023-08-01T07:08:50;6.20;;;4.70;;
9142;SDS011;54072;47.410;8.446;2023-08-01T07:11:18;6.20;;;4.23;;
9142;SDS011;54072;47.410;8.446;2023-08-01T07:13:46;6.43;;;4.23;;
9142;SDS011;54072;47.410;8.446;2023-08-01T07:16:13;9.47;;;4.63;;
9142;SDS011;54072;47.410;8.446;2023-08-01T07:18:41;5.30;;;4.33;;
9142;SDS011;54072;47.410;8.446;2023-08-01T07:21:10;6.97;;;4.23;;
9142;SDS011;54072;47.410;8.446;2023-08-01T07:23:37;5.40;;;3.80;;
9142;SDS011;54072;47.410;8.446;2023-08-01T07:26:05;6.17;;;3.50;;
9142;SDS011;54072;47.410;8.446;2023-08-01T07:28:33;5.93;;;3.27;;
9142;SDS011;54072;47.410;8.446;2023-08-01T07:31:01;4.80;;;3.33;;
9142;SDS011;54072;47.410;8.446;2023-08-01T07:33:29;4.13;;;3.23;;
9142;SDS011;54072;47.410;8.446;2023-08-01T07:35:57;4.40;;;3.10;;
9142;SDS011;54072;47.410;8.446;2023-08-01T07:38:25;3.37;;;2.90;;
9142;SDS011;54072;47.410;8.446;2023-08-01T07:40:54;4.57;;;3.40;;
9142;SDS011;54072;47.410;8.446;2023-08-01T07:43:21;4.70;;;3.13;;
9142;SDS011;54072;47.410;8.446;2023-08-01T07:45:55;5.47;;;3.47;;
9142;SDS011;54072;47.410;8.446;2023-08-01T07:48:22;3.93;;;3.20;;
9142;SDS011;54072;47.410;8.446;2023-08-01T07:50:50;5.17;;;3.37;;
9142;SDS011;54072;47.410;8.446;2023-08-01T07:53:18;4.20;;;3.40;;
9142;SDS011;54072;47.410;8.446;2023-08-01T07:55:46;4.97;;;3.40;;
9142;SDS011;54072;47.410;8.446;2023-08-01T07:58:16;5.10;;;3.10;;
9142;SDS011;54072;47.410;8.446;2023-08-01T08:00:44;4.20;;;3.00;;
9142;SDS011;54072;47.410;8.446;2023-08-01T08:03:12;4.33;;;3.13;;
9142;SDS011;54072;47.410;8.446;2023-08-01T08:05:39;5.13;;;3.43;;
9142;SDS011;54072;47.410;8.446;2023-08-01T08:08:07;3.73;;;3.03;;
9142;SDS011;54072;47.410;8.446;2023-08-01T08:10:35;6.17;;;3.40;;
9142;SDS011;54072;47.410;8.446;2023-08-01T08:13:04;3.50;;;3.20;;
9142;SDS011;54072;47.410;8.446;2023-08-01T08:15:31;4.07;;;3.07;;
9142;SDS011;54072;47.410;8.446;2023-08-01T08:18:01;4.80;;;3.27;;
9142;SDS011;54072;47.410;8.446;2023-08-01T08:20:30;3.53;;;3.20;;
9142;SDS011;54072;47.410;8.446;2023-08-01T08:22:58;4.40;;;3.33;;
9142;SDS011;54072;47.410;8.446;2023-08-01T08:25:25;4.10;;;3.20;;
9142;SDS011;54072;47.410;8.446;2023-08-01T08:27:53;4.13;;;3.30;;
9142;SDS011;54072;47.410;8.446;2023-08-01T08:30:22;5.37;;;3.37;;
9142;SDS011;54072;47.410;8.446;2023-08-01T08:32:49;4.40;;;3.30;;
9142;SDS011;54072;47.410;8.446;2023-08-01T08:35:17;3.80;;;2.90;;
9142;SDS011;54072;47.410;8.446;2023-08-01T08:37:44;3.83;;;3.23;;
9142;SDS011;54072;47.410;8.446;2023-08-01T08:40:12;5.47;;;3.40;;
9142;SDS011;54072;47.410;8.446;2023-08-01T08:42:40;5.33;;;3.23;;
9142;SDS011;54072;47.410;8.446;2023-08-01T08:45:07;4.90;;;3.23;;
9142;SDS011;54072;47.410;8.446;2023-08-01T08:47:38;4.73;;;3.23;;
9142;SDS011;54072;47.410;8.446;2023-08-01T08:50:09;4.40;;;3.20;;
9142;SDS011;54072;47.410;8.446;2023-08-01T08:52:37;3.20;;;2.87;;
9142;SDS011;54072;47.410;8.446;2023-08-01T08:55:05;4.10;;;3.20;;
9142;SDS011;54072;47.410;8.446;2023-08-01T08:57:33;4.87;;;3.47;;
9142;SDS011;54072;47.410;8.446;2023-08-01T09:00:01;4.13;;;3.20;;
9142;SDS011;54072;47.410;8.446;2023-08-01T09:02:32;5.60;;;3.60;;
9142;SDS011;54072;47.410;8.446;2023-08-01T09:05:01;4.33;;;3.20;;
9142;SDS011;54072;47.410;8.446;2023-08-01T09:07:29;4.43;;;3.17;;
9142;SDS011;54072;47.410;8.446;2023-08-01T09:09:57;4.60;;;3.00;;
9142;SDS011;54072;47.410;8.446;2023-08-01T09:12:25;5.43;;;3.83;;
9142;SDS011;54072;47.410;8.446;2023-08-01T09:14:53;7.13;;;3.60;;
9142;SDS011;54072;47.410;8.446;2023-08-01T09:17:25;5.03;;;3.43;;
9142;SDS011;54072;47.410;8.446;2023-08-01T09:19:55;4.47;;;3.40;;
9142;SDS011;54072;47.410;8.446;2023-08-01T09:22:24;4.90;;;3.50;;
9142;SDS011;54072;47.410;8.446;2023-08-01T09:24:51;3.90;;;3.30;;
9142;SDS011;54072;47.410;8.446;2023-08-01T09:27:20;5.53;;;3.60;;
9142;SDS011;54072;47.410;8.446;2023-08-01T09:29:48;5.10;;;3.63;;
9142;SDS011;54072;47.410;8.446;2023-08-01T09:32:15;5.73;;;3.80;;
9142;SDS011;54072;47.410;8.446;2023-08-01T09:34:44;7.07;;;3.70;;
9142;SDS011;54072;47.410;8.446;2023-08-01T09:37:12;3.97;;;3.13;;
9142;SDS011;54072;47.410;8.446;2023-08-01T09:39:41;5.20;;;3.40;;
9142;SDS011;54072;47.410;8.446;2023-08-01T09:42:09;5.20;;;3.33;;
9142;SDS011;54072;47.410;8.446;2023-08-01T09:44:37;4.30;;;3.60;;
9142;SDS011;54072;47.410;8.446;2023-08-01T09:47:05;6.43;;;3.77;;
9142;SDS011;54072;47.410;8.446;2023-08-01T09:49:35;3.53;;;3.07;;
9142;SDS011;54072;47.410;8.446;2023-08-01T09:52:03;4.30;;;3.30;;
9142;SDS011;54072;47.410;8.446;2023-08-01T09:54:31;5.03;;;3.60;;
9142;SDS011;54072;47.410;8.446;2023-08-01T09:57:00;6.50;;;3.97;;
9142;SDS011;54072;47.410;8.446;2023-08-01T09:59:30;4.33;;;3.33;;
9142;SDS011;54072;47.410;8.446;2023-08-01T10:01:58;5.23;;;3.80;;
9142;SDS011;54072;47.410;8.446;2023-08-01T10:04:26;4.47;;;3.40;;
9142;SDS011;54072;47.410;8.446;2023-08-01T10:06:57;4.40;;;3.70;;
9142;SDS011;54072;47.410;8.446;2023-08-01T10:09:25;5.40;;;3.47;;
9142;SDS011;54072;47.410;8.446;2023-08-01T10:11:53;4.47;;;3.92;;
9142;SDS011;54072;47.410;8.446;2023-08-01T10:14:23;5.83;;;3.93;;
9142;SDS011;54072;47.410;8.446;2023-08-01T10:16:51;3.90;;;3.50;;
9142;SDS011;54072;47.410;8.446;2023-08-01T10:19:19;5.33;;;3.60;;
9142;SDS011;54072;47.410;8.446;2023-08-01T10:21:46;5.73;;;3.40;;
9142;SDS011;54072;47.410;8.446;2023-08-01T10:24:14;6.30;;;3.80;;
9142;SDS011;54072;47.410;8.446;2023-08-01T10:26:44;6.00;;;3.50;;
9142;SDS011;54072;47.410;8.446;2023-08-01T10:29:12;4.10;;;3.03;;
9142;SDS011;54072;47.410;8.446;2023-08-01T10:31:49;3.67;;;2.70;;
9142;SDS011;54072;47.410;8.446;2023-08-01T10:34:17;2.50;;;2.30;;
9142;SDS011;54072;47.410;8.446;2023-08-01T10:36:52;4.30;;;2.57;;
9142;SDS011;54072;47.410;8.446;2023-08-01T10:39:21;4.50;;;2.47;;
9142;SDS011;54072;47.410;8.446;2023-08-01T10:41:56;3.07;;;2.30;;
9142;SDS011;54072;47.410;8.446;2023-08-01T10:44:23;3.00;;;2.27;;
9142;SDS011;54072;47.410;8.446;2023-08-01T10:46:53;3.97;;;2.00;;
9142;SDS011;54072;47.410;8.446;2023-08-01T10:49:32;2.00;;;1.90;;
9142;SDS011;54072;47.410;8.446;2023-08-01T10:52:00;2.80;;;2.30;;
9142;SDS011;54072;47.410;8.446;2023-08-01T10:54:28;1.97;;;1.83;;
9142;SDS011;54072;47.410;8.446;2023-08-01T10:56:56;2.20;;;2.00;;
9142;SDS011;54072;47.410;8.446;2023-08-01T10:59:24;2.50;;;1.90;;
9142;SDS011;54072;47.410;8.446;2023-08-01T11:01:53;2.13;;;1.93;;
9142;SDS011;54072;47.410;8.446;2023-08-01T11:04:21;2.37;;;2.17;;
9142;SDS011;54072;47.410;8.446;2023-08-01T11:06:49;3.77;;;2.10;;
9142;SDS011;54072;47.410;8.446;2023-08-01T11:09:18;2.67;;;2.43;;
9142;SDS011;54072;47.410;8.446;2023-08-01T11:11:46;2.37;;;1.77;;
9142;SDS011;54072;47.410;8.446;2023-08-01T11:14:15;2.47;;;1.97;;
9142;SDS011;54072;47.410;8.446;2023-08-01T11:16:43;2.30;;;2.10;;
9142;SDS011;54072;47.410;8.446;2023-08-01T11:19:19;2.33;;;1.90;;
9142;SDS011;54072;47.410;8.446;2023-08-01T11:21:47;3.03;;;2.20;;
9142;SDS011;54072;47.410;8.446;2023-08-01T11:24:15;3.07;;;2.10;;
9142;SDS011;54072;47.410;8.446;2023-08-01T11:26:43;2.10;;;1.90;;
9142;SDS011;54072;47.410;8.446;2023-08-01T11:29:11;2.20;;;2.00;;
9142;SDS011;54072;47.410;8.446;2023-08-01T11:31:38;3.40;;;2.47;;
9142;SDS011;54072;47.410;8.446;2023-08-01T11:34:07;3.43;;;2.10;;
9142;SDS011;54072;47.410;8.446;2023-08-01T11:36:37;2.90;;;1.87;;
9142;SDS011;54072;47.410;8.446;2023-08-01T11:39:05;2.60;;;2.17;;
9142;SDS011;54072;47.410;8.446;2023-08-01T11:41:32;2.83;;;2.20;;
9142;SDS011;54072;47.410;8.446;2023-08-01T11:44:03;2.67;;;2.30;;
9142;SDS011;54072;47.410;8.446;2023-08-01T11:46:32;2.57;;;2.33;;
9142;SDS011;54072;47.410;8.446;2023-08-01T11:49:01;3.63;;;2.23;;
9142;SDS011;54072;47.410;8.446;2023-08-01T11:51:28;2.90;;;2.10;;
9142;SDS011;54072;47.410;8.446;2023-08-01T11:54:01;2.87;;;2.20;;
9142;SDS011;54072;47.410;8.446;2023-08-01T11:56:29;3.37;;;2.30;;
9142;SDS011;54072;47.410;8.446;2023-08-01T11:58:57;2.97;;;2.10;;
9142;SDS011;54072;47.410;8.446;2023-08-01T12:01:25;2.10;;;1.80;;
9142;SDS011;54072;47.410;8.446;2023-08-01T12:03:53;1.80;;;1.70;;
9142;SDS011;54072;47.410;8.446;2023-08-01T12:06:22;2.10;;;1.87;;
9142;SDS011;54072;47.410;8.446;2023-08-01T12:08:50;3.37;;;2.00;;
9142;SDS011;54072;47.410;8.446;2023-08-01T12:11:20;2.20;;;2.00;;
9142;SDS011;54072;47.410;8.446;2023-08-01T12:13:59;2.23;;;1.97;;
9142;SDS011;54072;47.410;8.446;2023-08-01T12:16:26;2.77;;;2.30;;
9142;SDS011;54072;47.410;8.446;2023-08-01T12:18:54;2.53;;;2.33;;
9142;SDS011;54072;47.410;8.446;2023-08-01T12:21:25;3.23;;;2.10;;
9142;SDS011;54072;47.410;8.446;2023-08-01T12:23:53;2.57;;;2.30;;
9142;SDS011;54072;47.410;8.446;2023-08-01T12:26:21;2.83;;;2.23;;
9142;SDS011;54072;47.410;8.446;2023-08-01T12:28:49;2.60;;;2.40;;
9142;SDS011;54072;47.410;8.446;2023-08-01T12:31:17;1.87;;;1.77;;
9142;SDS011;54072;47.410;8.446;2023-08-01T12:33:45;2.33;;;2.10;;
9142;SDS011;54072;47.410;8.446;2023-08-01T12:36:12;1.93;;;1.73;;
9142;SDS011;54072;47.410;8.446;2023-08-01T12:38:40;2.20;;;2.00;;
9142;SDS011;54072;47.410;8.446;2023-08-01T12:41:08;2.13;;;1.93;;
9142;SDS011;54072;47.410;8.446;2023-08-01T12:43:37;3.10;;;2.10;;
9142;SDS011;54072;47.410;8.446;2023-08-01T12:46:04;3.90;;;2.10;;
9142;SDS011;54072;47.410;8.446;2023-08-01T12:48:32;3.10;;;2.10;;
9142;SDS011;54072;47.410;8.446;2023-08-01T12:51:00;2.27;;;1.73;;
9142;SDS011;54072;47.410;8.446;2023-08-01T12:53:27;2.50;;;1.93;;
9142;SDS011;54072;47.410;8.446;2023-08-01T12:55:55;3.10;;;2.03;;
9142;SDS011;54072;47.410;8.446;2023-08-01T12:58:22;2.87;;;2.10;;
9142;SDS011;54072;47.410;8.446;2023-08-01T13:00:51;2.37;;;2.17;;
9142;SDS011;54072;47.410;8.446;2023-08-01T13:03:18;2.37;;;2.17;;
9142;SDS011;54072;47.410;8.446;2023-08-01T13:05:46;3.43;;;2.33;;
9142;SDS011;54072;47.410;8.446;2023-08-01T13:08:14;3.20;;;2.00;;
9142;SDS011;54072;47.410;8.446;2023-08-01T13:10:41;3.17;;;2.40;;
9142;SDS011;54072;47.410;8.446;2023-08-01T13:13:11;1.80;;;1.70;;
9142;SDS011;54072;47.410;8.446;2023-08-01T13:15:38;2.63;;;2.20;;
9142;SDS011;54072;47.410;8.446;2023-08-01T13:18:07;3.37;;;2.10;;
9142;SDS011;54072;47.410;8.446;2023-08-01T13:20:35;2.87;;;2.23;;
9142;SDS011;54072;47.410;8.446;2023-08-01T13:23:02;3.43;;;2.30;;
9142;SDS011;54072;47.410;8.446;2023-08-01T13:25:30;2.57;;;2.37;;
9142;SDS011;54072;47.410;8.446;2023-08-01T13:27:58;2.40;;;2.20;;
9142;SDS011;54072;47.410;8.446;2023-08-01T13:30:25;3.03;;;1.97;;
9142;SDS011;54072;47.410;8.446;2023-08-01T13:32:53;2.63;;;2.23;;
9142;SDS011;54072;47.410;8.446;2023-08-01T13:35:21;2.13;;;1.80;;
9142;SDS011;54072;47.410;8.446;2023-08-01T13:37:49;2.27;;;2.03;;
9142;SDS011;54072;47.410;8.446;2023-08-01T13:40:17;2.40;;;2.20;;
9142;SDS011;54072;47.410;8.446;2023-08-01T13:42:44;2.53;;;2.00;;
9142;SDS011;54072;47.410;8.446;2023-08-01T13:45:12;1.90;;;1.70;;
9142;SDS011;54072;47.410;8.446;2023-08-01T13:47:39;1.97;;;1.87;;
9142;SDS011;54072;47.410;8.446;2023-08-01T13:50:07;2.13;;;1.93;;
9142;SDS011;54072;47.410;8.446;2023-08-01T13:52:37;2.10;;;1.90;;
9142;SDS011;54072;47.410;8.446;2023-08-01T13:55:05;2.20;;;2.00;;
9142;SDS011;54072;47.410;8.446;2023-08-01T13:57:33;3.07;;;1.70;;
9142;SDS011;54072;47.410;8.446;2023-08-01T14:00:01;2.13;;;1.60;;
9142;SDS011;54072;47.410;8.446;2023-08-01T14:02:37;1.93;;;1.53;;
9142;SDS011;54072;47.410;8.446;2023-08-01T14:05:04;2.70;;;1.60;;
9142;SDS011;54072;47.410;8.446;2023-08-01T14:07:34;1.47;;;1.37;;
9142;SDS011;54072;47.410;8.446;2023-08-01T14:10:03;1.50;;;1.40;;
9142;SDS011;54072;47.410;8.446;2023-08-01T14:12:31;1.90;;;1.70;;
9142;SDS011;54072;47.410;8.446;2023-08-01T14:14:58;1.93;;;1.43;;
9142;SDS011;54072;47.410;8.446;2023-08-01T14:17:26;2.27;;;1.53;;
9142;SDS011;54072;47.410;8.446;2023-08-01T14:19:53;2.77;;;1.67;;
9142;SDS011;54072;47.410;8.446;2023-08-01T14:22:22;1.80;;;1.50;;
9142;SDS011;54072;47.410;8.446;2023-08-01T14:24:50;2.27;;;1.83;;
9142;SDS011;54072;47.410;8.446;2023-08-01T14:27:19;3.27;;;1.90;;
9142;SDS011;54072;47.410;8.446;2023-08-01T14:29:46;2.00;;;1.80;;
9142;SDS011;54072;47.410;8.446;2023-08-01T14:32:16;1.93;;;1.63;;
9142;SDS011;54072;47.410;8.446;2023-08-01T14:34:43;3.13;;;1.70;;
9142;SDS011;54072;47.410;8.446;2023-08-01T14:37:11;1.63;;;1.53;;
9142;SDS011;54072;47.410;8.446;2023-08-01T14:39:38;2.97;;;1.70;;
9142;SDS011;54072;47.410;8.446;2023-08-01T14:42:06;2.13;;;1.70;;
9142;SDS011;54072;47.410;8.446;2023-08-01T14:44:35;2.17;;;1.70;;
9142;SDS011;54072;47.410;8.446;2023-08-01T14:47:02;2.13;;;1.77;;
9142;SDS011;54072;47.410;8.446;2023-08-01T14:49:30;3.43;;;1.83;;
9142;SDS011;54072;47.410;8.446;2023-08-01T14:51:58;2.03;;;1.83;;
9142;SDS011;54072;47.410;8.446;2023-08-01T14:54:25;2.00;;;1.50;;
9142;SDS011;54072;47.410;8.446;2023-08-01T14:56:56;1.60;;;1.50;;
9142;SDS011;54072;47.410;8.446;2023-08-01T14:59:23;1.83;;;1.70;;
9142;SDS011;54072;47.410;8.446;2023-08-01T15:01:52;1.33;;;1.23;;
9142;SDS011;54072;47.410;8.446;2023-08-01T15:04:20;1.47;;;1.37;;
9142;SDS011;54072;47.410;8.446;2023-08-01T15:06:47;2.03;;;1.83;;